createdAt,value
2022-11-26T00:00:31.286Z,6.20
2022-11-26T00:02:59.187Z,6.10
2022-11-26T00:05:31.878Z,6.10
2022-11-26T00:08:01.909Z,6.20
2022-11-26T00:10:35.617Z,6.10
2022-11-26T00:13:03.496Z,6.10
2022-11-26T00:15:32.552Z,6.10
2022-11-26T00:18:00.658Z,6.10
2022-11-26T00:20:31.802Z,6.10
2022-11-26T00:23:03.203Z,6.10
2022-11-26T00:25:40.448Z,6.10
2022-11-26T00:28:28.925Z,6.00
2022-11-26T00:30:59.416Z,6.00
2022-11-26T00:33:28.023Z,6.00
2022-11-26T00:35:58.736Z,6.00
2022-11-26T00:38:27.037Z,6.00
2022-11-26T00:40:56.240Z,6.00
2022-11-26T00:43:24.116Z,5.90
2022-11-26T00:45:52.050Z,5.90
2022-11-26T00:48:20.246Z,5.90
2022-11-26T00:50:50.338Z,5.80
2022-11-26T00:53:21.797Z,5.80
2022-11-26T00:55:50.879Z,5.80
2022-11-26T00:58:27.186Z,5.80
2022-11-26T01:00:56.653Z,5.60
2022-11-26T01:03:24.971Z,5.60
2022-11-26T01:05:55.010Z,5.60
2022-11-26T01:08:29.995Z,5.60
2022-11-26T01:10:58.067Z,5.60
2022-11-26T01:13:27.753Z,5.60
2022-11-26T01:15:56.159Z,5.60
2022-11-26T01:18:25.330Z,5.60
2022-11-26T01:20:53.105Z,5.70
2022-11-26T01:23:21.341Z,5.60
2022-11-26T01:25:49.325Z,5.60
2022-11-26T01:28:19.411Z,5.70
2022-11-26T01:30:48.658Z,5.70
2022-11-26T01:33:16.458Z,5.70
2022-11-26T01:35:44.457Z,5.70
2022-11-26T01:38:15.072Z,5.70
2022-11-26T01:40:54.133Z,5.70
2022-11-26T01:43:26.901Z,5.70
2022-11-26T01:45:57.396Z,5.80
2022-11-26T01:48:29.040Z,5.80
2022-11-26T01:51:05.718Z,5.70
2022-11-26T01:53:44.197Z,5.80
2022-11-26T01:56:23.187Z,5.80
2022-11-26T01:58:55.465Z,5.80
2022-11-26T02:01:24.845Z,5.70
2022-11-26T02:04:03.474Z,5.80
2022-11-26T02:06:33.419Z,5.70
2022-11-26T02:09:03.450Z,5.80
2022-11-26T02:11:31.281Z,5.80
2022-11-26T02:14:01.981Z,5.80
2022-11-26T02:16:47.001Z,5.70
2022-11-26T02:19:46.459Z,5.80
2022-11-26T02:22:28.928Z,5.70
2022-11-26T02:25:06.097Z,5.70
2022-11-26T02:27:54.862Z,5.70
2022-11-26T02:30:24.111Z,5.70
2022-11-26T02:32:59.142Z,5.80
2022-11-26T02:35:34.170Z,5.70
2022-11-26T02:38:06.293Z,5.70
2022-11-26T02:40:34.179Z,5.70
2022-11-26T02:43:02.121Z,5.70
2022-11-26T02:45:34.316Z,5.70
2022-11-26T02:48:04.412Z,5.70
2022-11-26T02:50:37.610Z,5.70
2022-11-26T02:53:06.298Z,5.70
2022-11-26T02:55:39.593Z,5.70
2022-11-26T02:58:08.054Z,5.70
2022-11-26T03:00:42.210Z,5.60
2022-11-26T03:03:17.021Z,5.70
2022-11-26T03:05:44.924Z,5.70
2022-11-26T03:08:12.850Z,5.70
2022-11-26T03:10:40.653Z,5.60
2022-11-26T03:13:08.494Z,5.60
2022-11-26T03:15:37.633Z,5.70
2022-11-26T03:18:05.626Z,5.70
2022-11-26T03:20:33.456Z,5.70
2022-11-26T03:23:01.501Z,5.70
2022-11-26T03:25:29.478Z,5.70
2022-11-26T03:27:57.501Z,5.70
2022-11-26T03:30:25.525Z,5.60
2022-11-26T03:32:54.708Z,5.60
2022-11-26T03:35:22.501Z,5.60
2022-11-26T03:37:50.313Z,5.60
2022-11-26T03:40:18.276Z,5.60
2022-11-26T03:42:46.381Z,5.60
2022-11-26T03:45:14.207Z,5.60
2022-11-26T03:47:42.007Z,5.60
2022-11-26T03:50:11.830Z,5.60
2022-11-26T03:52:39.630Z,5.60
2022-11-26T03:55:09.231Z,5.60
2022-11-26T03:57:37.443Z,5.60
2022-11-26T04:00:08.678Z,5.50
2022-11-26T04:02:36.476Z,5.60
2022-11-26T04:05:04.961Z,5.60
2022-11-26T04:07:34.145Z,5.60
2022-11-26T04:10:01.959Z,5.60
2022-11-26T04:12:29.800Z,5.60
2022-11-26T04:14:57.554Z,5.60
2022-11-26T04:17:25.322Z,5.70
2022-11-26T04:19:53.559Z,5.70
2022-11-26T04:22:21.354Z,5.80
2022-11-26T04:24:50.470Z,5.80
2022-11-26T04:27:18.296Z,5.80
2022-11-26T04:29:46.044Z,5.80
2022-11-26T04:32:13.816Z,5.80
2022-11-26T04:34:41.609Z,5.80
2022-11-26T04:37:09.433Z,5.80
2022-11-26T04:39:37.401Z,5.80
2022-11-26T04:42:06.641Z,5.80
2022-11-26T04:44:34.400Z,5.80
2022-11-26T04:47:02.243Z,5.90
2022-11-26T04:49:30.041Z,5.90
2022-11-26T04:51:58.046Z,5.90
2022-11-26T04:54:25.822Z,5.90
2022-11-26T04:56:53.866Z,5.90
2022-11-26T04:59:22.992Z,5.80
2022-11-26T05:01:50.774Z,5.90
2022-11-26T05:04:18.661Z,5.80
2022-11-26T05:06:46.452Z,5.80
2022-11-26T05:09:14.273Z,5.80
2022-11-26T05:11:42.378Z,5.80
2022-11-26T05:14:10.212Z,5.90
2022-11-26T05:16:39.488Z,5.80
2022-11-26T05:19:07.337Z,5.90
2022-11-26T05:21:35.082Z,5.80
2022-11-26T05:24:02.887Z,5.80
2022-11-26T05:26:30.763Z,5.80
2022-11-26T05:28:58.529Z,5.80
2022-11-26T05:31:26.515Z,5.80
2022-11-26T05:33:55.657Z,5.80
2022-11-26T05:36:23.478Z,5.80
2022-11-26T05:38:51.295Z,5.80
2022-11-26T05:41:19.069Z,5.80
2022-11-26T05:43:46.928Z,5.80
2022-11-26T05:46:17.262Z,5.80
2022-11-26T05:48:45.638Z,5.90
2022-11-26T05:51:14.900Z,5.90
2022-11-26T05:53:42.686Z,5.90
2022-11-26T05:56:10.801Z,5.90
2022-11-26T05:58:38.572Z,5.90
2022-11-26T06:01:09.135Z,6.00
2022-11-26T06:03:37.675Z,5.90
2022-11-26T06:06:06.200Z,5.90
2022-11-26T06:08:35.612Z,5.90
2022-11-26T06:11:03.411Z,6.10
2022-11-26T06:13:31.185Z,6.00
2022-11-26T06:15:59.548Z,6.00
2022-11-26T06:18:27.542Z,6.00
2022-11-26T06:20:55.466Z,6.00
2022-11-26T06:23:23.359Z,6.00
2022-11-26T06:25:52.474Z,6.10
2022-11-26T06:28:20.355Z,6.00
2022-11-26T06:30:48.169Z,6.10
2022-11-26T06:33:15.936Z,6.10
2022-11-26T06:35:43.798Z,6.00
2022-11-26T06:38:12.310Z,6.00
2022-11-26T06:40:40.090Z,5.90
2022-11-26T06:43:09.428Z,5.90
2022-11-26T06:45:37.212Z,5.80
2022-11-26T06:48:05.302Z,5.80
2022-11-26T06:50:33.333Z,5.80
2022-11-26T06:53:01.217Z,5.80
2022-11-26T06:55:29.007Z,5.80
2022-11-26T06:57:56.782Z,5.80
2022-11-26T07:00:26.058Z,5.80
2022-11-26T07:02:53.886Z,5.80
2022-11-26T07:05:21.739Z,5.80
2022-11-26T07:07:49.583Z,5.90
2022-11-26T07:10:18.630Z,5.80
2022-11-26T07:12:46.502Z,5.90
2022-11-26T07:15:14.257Z,5.90
2022-11-26T07:17:43.386Z,5.80
2022-11-26T07:20:12.029Z,5.90
2022-11-26T07:22:39.978Z,5.90
2022-11-26T07:25:12.501Z,5.80
2022-11-26T07:27:41.073Z,5.80
2022-11-26T07:30:10.420Z,5.80
2022-11-26T07:32:38.360Z,5.90
2022-11-26T07:35:08.448Z,5.90
2022-11-26T07:37:36.369Z,5.90
2022-11-26T07:40:05.633Z,5.90
2022-11-26T07:42:33.499Z,6.00
2022-11-26T07:45:01.368Z,6.00
2022-11-26T07:47:29.137Z,6.00
2022-11-26T07:49:56.899Z,6.00
2022-11-26T07:52:26.056Z,6.10
2022-11-26T07:54:53.878Z,6.00
2022-11-26T07:57:22.885Z,6.10
2022-11-26T07:59:50.717Z,6.10
2022-11-26T08:02:19.016Z,6.10
2022-11-26T08:04:46.845Z,6.20
2022-11-26T08:07:20.097Z,6.20
2022-11-26T08:09:53.646Z,6.20
2022-11-26T08:12:21.480Z,6.20
2022-11-26T08:14:49.284Z,6.00
2022-11-26T08:17:17.119Z,6.10
2022-11-26T08:19:45.045Z,6.20
2022-11-26T08:22:12.849Z,6.20
2022-11-26T08:24:40.880Z,6.20
2022-11-26T08:27:10.356Z,6.20
2022-11-26T08:29:38.527Z,6.20
2022-11-26T08:32:06.431Z,6.20
2022-11-26T08:34:34.550Z,6.20
2022-11-26T08:37:02.321Z,6.20
2022-11-26T08:39:30.332Z,6.30
2022-11-26T08:41:58.162Z,6.30
2022-11-26T08:44:27.362Z,6.30
2022-11-26T08:46:55.168Z,6.40
2022-11-26T08:49:22.993Z,6.40
2022-11-26T08:51:50.799Z,6.50
2022-11-26T08:54:18.585Z,6.60
2022-11-26T08:56:46.396Z,6.50
2022-11-26T08:59:14.245Z,6.60
2022-11-26T09:01:43.451Z,6.70
2022-11-26T09:04:11.293Z,6.80
2022-11-26T09:06:40.786Z,6.90
2022-11-26T09:09:15.526Z,7.00
2022-11-26T09:11:46.049Z,7.10
2022-11-26T09:14:15.072Z,7.20
2022-11-26T09:16:44.494Z,7.20
2022-11-26T09:19:13.738Z,7.30
2022-11-26T09:21:41.850Z,7.30
2022-11-26T09:24:09.742Z,7.40
2022-11-26T09:26:37.736Z,7.40
2022-11-26T09:29:05.861Z,7.40
2022-11-26T09:31:34.147Z,7.50
2022-11-26T09:34:03.765Z,7.50
2022-11-26T09:36:31.706Z,7.50
2022-11-26T09:39:00.589Z,7.50
2022-11-26T09:41:40.541Z,7.30
2022-11-26T09:44:23.540Z,7.20
2022-11-26T09:47:13.817Z,7.20
2022-11-26T09:49:54.433Z,7.20
2022-11-26T09:52:24.545Z,7.30
2022-11-26T09:54:58.952Z,7.30
2022-11-26T09:57:31.893Z,7.30
2022-11-26T09:59:59.781Z,7.30
2022-11-26T10:02:27.598Z,7.30
2022-11-26T10:04:56.813Z,7.30
2022-11-26T10:07:41.688Z,7.30
2022-11-26T10:10:17.594Z,7.40
2022-11-26T10:13:17.237Z,7.30
2022-11-26T10:15:51.305Z,7.40
2022-11-26T10:18:29.501Z,7.50
2022-11-26T10:21:12.298Z,7.50
2022-11-26T10:23:46.182Z,7.50
2022-11-26T10:26:17.777Z,7.40
2022-11-26T10:28:47.584Z,7.40
2022-11-26T10:31:21.996Z,7.20
2022-11-26T10:33:56.733Z,7.10
2022-11-26T10:36:28.689Z,7.20
2022-11-26T10:38:57.204Z,7.30
2022-11-26T10:41:28.882Z,7.20
2022-11-26T10:43:56.691Z,7.30
2022-11-26T10:46:37.497Z,7.10
2022-11-26T10:49:23.440Z,7.00
2022-11-26T10:51:55.616Z,7.00
2022-11-26T10:54:27.205Z,7.00
2022-11-26T10:56:56.401Z,6.90
2022-11-26T10:59:28.057Z,7.00
2022-11-26T11:02:01.890Z,6.90
2022-11-26T11:04:33.133Z,6.80
2022-11-26T11:07:05.197Z,6.90
2022-11-26T11:09:37.834Z,7.00
2022-11-26T11:12:21.836Z,7.20
2022-11-26T11:14:51.613Z,7.30
2022-11-26T11:17:34.080Z,7.40
2022-11-26T11:20:21.979Z,7.30
2022-11-26T11:22:59.391Z,7.30
2022-11-26T11:25:30.822Z,7.30
2022-11-26T11:28:08.963Z,7.40
2022-11-26T11:30:41.470Z,7.40
2022-11-26T11:33:20.569Z,7.30
2022-11-26T11:36:01.435Z,7.20
2022-11-26T11:38:32.565Z,7.20
2022-11-26T11:41:05.459Z,7.20
2022-11-26T11:43:37.637Z,7.30
2022-11-26T11:46:17.301Z,7.30
2022-11-26T11:48:54.276Z,7.40
2022-11-26T11:51:34.082Z,7.20
2022-11-26T11:54:14.790Z,7.30
2022-11-26T11:56:47.881Z,7.20
2022-11-26T11:59:47.504Z,7.20
2022-11-26T12:02:34.685Z,7.20
2022-11-26T12:05:23.786Z,7.20
2022-11-26T12:07:59.335Z,7.30
2022-11-26T12:10:35.694Z,7.50
2022-11-26T12:13:07.886Z,7.50
2022-11-26T12:15:43.070Z,7.50
2022-11-26T12:18:23.565Z,7.50
2022-11-26T12:20:54.723Z,7.60
2022-11-26T12:23:30.275Z,7.60
2022-11-26T12:26:07.001Z,7.60
2022-11-26T12:28:39.752Z,7.60
2022-11-26T12:31:14.337Z,7.70
2022-11-26T12:33:47.257Z,7.70
2022-11-26T12:36:20.649Z,7.60
2022-11-26T12:38:53.299Z,7.70
2022-11-26T12:41:26.509Z,7.80
2022-11-26T12:44:00.113Z,7.70
2022-11-26T12:46:34.657Z,7.50
2022-11-26T12:49:13.299Z,7.50
2022-11-26T12:51:46.866Z,7.40
2022-11-26T12:54:20.729Z,7.40
2022-11-26T12:56:58.083Z,7.30
2022-11-26T12:59:30.639Z,7.40
2022-11-26T13:01:58.912Z,7.60
2022-11-26T13:04:38.109Z,7.60
2022-11-26T13:07:15.170Z,7.60
2022-11-26T13:10:00.038Z,7.50
2022-11-26T13:12:39.965Z,7.50
2022-11-26T13:15:18.438Z,7.60
2022-11-26T13:17:49.099Z,7.70
2022-11-26T13:20:36.519Z,7.80
2022-11-26T13:23:19.309Z,7.80
2022-11-26T13:26:08.423Z,7.60
2022-11-26T13:28:59.084Z,7.60
2022-11-26T13:31:43.252Z,7.60
2022-11-26T13:34:26.886Z,7.50
2022-11-26T13:37:22.390Z,7.60
2022-11-26T13:40:20.104Z,7.50
2022-11-26T13:43:16.829Z,7.60
2022-11-26T13:46:07.203Z,7.40
2022-11-26T13:48:42.932Z,7.50
2022-11-26T13:51:18.972Z,7.60
2022-11-26T13:53:51.629Z,7.30
2022-11-26T13:56:23.322Z,7.30
2022-11-26T13:58:55.860Z,7.40
2022-11-26T14:01:36.713Z,7.20
2022-11-26T14:04:07.670Z,7.30
2022-11-26T14:06:38.209Z,7.20
2022-11-26T14:09:06.820Z,7.10
2022-11-26T14:11:58.043Z,6.90
2022-11-26T14:14:34.290Z,7.00
2022-11-26T14:17:18.731Z,7.10
2022-11-26T14:20:06.728Z,7.20
2022-11-26T14:22:36.545Z,7.20
2022-11-26T14:25:07.498Z,7.10
2022-11-26T14:27:37.225Z,7.10
2022-11-26T14:30:26.840Z,7.10
2022-11-26T14:33:14.861Z,7.10
2022-11-26T14:35:54.721Z,7.10
2022-11-26T14:38:27.630Z,7.00
2022-11-26T14:41:00.329Z,7.00
2022-11-26T14:43:29.376Z,7.00
2022-11-26T14:46:06.740Z,6.90
2022-11-26T14:48:42.068Z,6.90
2022-11-26T14:51:10.216Z,6.80
2022-11-26T14:53:44.005Z,6.70
2022-11-26T14:56:12.402Z,6.70
2022-11-26T14:58:44.192Z,6.60
2022-11-26T15:01:20.736Z,6.40
2022-11-26T15:03:58.560Z,6.30
2022-11-26T15:06:28.909Z,6.20
2022-11-26T15:09:07.804Z,6.10
2022-11-26T15:11:38.746Z,6.00
2022-11-26T15:14:06.690Z,5.90
2022-11-26T15:16:37.237Z,5.80
2022-11-26T15:19:07.626Z,5.60
2022-11-26T15:21:36.426Z,5.50
2022-11-26T15:24:09.606Z,5.40
2022-11-26T15:26:39.580Z,5.30
2022-11-26T15:29:32.961Z,5.30
2022-11-26T15:32:01.101Z,5.20
2022-11-26T15:34:32.573Z,5.10
2022-11-26T15:37:00.444Z,5.00
2022-11-26T15:39:30.669Z,5.00
2022-11-26T15:42:03.738Z,4.90
2022-11-26T15:44:35.447Z,4.90
2022-11-26T15:47:07.095Z,4.90
2022-11-26T15:49:39.002Z,4.90
2022-11-26T15:52:10.126Z,4.70
2022-11-26T15:55:10.930Z,4.60
2022-11-26T15:57:32.639Z,4.50
2022-11-26T16:00:04.025Z,4.40
2022-11-26T16:02:32.176Z,4.30
2022-11-26T16:05:02.507Z,4.30
2022-11-26T16:07:32.084Z,4.30
2022-11-26T16:10:23.875Z,4.30
2022-11-26T16:13:20.297Z,4.30
2022-11-26T16:15:52.825Z,4.40
2022-11-26T16:18:23.483Z,4.30
2022-11-26T16:21:03.634Z,4.10
2022-11-26T16:23:32.013Z,4.00
2022-11-26T16:26:13.834Z,4.00
2022-11-26T16:28:41.866Z,4.10
2022-11-26T16:31:09.952Z,4.00
2022-11-26T16:33:37.988Z,3.90
2022-11-26T16:36:21.501Z,3.80
2022-11-26T16:38:50.286Z,3.80
2022-11-26T16:41:19.931Z,3.80
2022-11-26T16:43:48.020Z,3.80
2022-11-26T16:46:18.437Z,3.80
2022-11-26T16:51:17.019Z,3.90
2022-11-26T16:53:45.178Z,3.90
2022-11-26T16:56:20.332Z,3.80
2022-11-26T16:58:48.329Z,3.80
2022-11-26T17:01:16.229Z,3.60
2022-11-26T17:03:44.437Z,3.50
2022-11-26T17:06:18.437Z,3.50
2022-11-26T17:11:34.093Z,3.40
2022-11-26T17:14:01.839Z,3.50
2022-11-26T17:16:30.117Z,3.50
2022-11-26T17:18:57.968Z,3.40
2022-11-26T17:21:27.077Z,3.30
2022-11-26T17:23:54.849Z,3.20
2022-11-26T17:26:26.025Z,3.30
2022-11-26T17:28:53.836Z,3.30
2022-11-26T17:31:21.622Z,3.10
2022-11-26T17:33:50.606Z,3.10
2022-11-26T17:36:20.108Z,3.00
2022-11-26T17:38:49.930Z,3.10
2022-11-26T17:41:18.145Z,3.00
2022-11-26T17:43:46.153Z,3.00
2022-11-26T17:46:19.334Z,3.00
2022-11-26T17:48:48.069Z,2.80
2022-11-26T17:51:16.185Z,2.90
2022-11-26T17:53:44.930Z,2.90
2022-11-26T17:56:19.205Z,2.90
2022-11-26T17:58:47.731Z,3.00
2022-11-26T18:01:16.483Z,3.00
2022-11-26T18:03:44.939Z,2.90
2022-11-26T18:06:16.765Z,2.90
2022-11-26T18:08:44.611Z,2.80
2022-11-26T18:11:12.832Z,2.70
2022-11-26T18:13:42.058Z,2.80
2022-11-26T18:16:10.031Z,2.80
2022-11-26T18:18:37.902Z,2.80
2022-11-26T18:21:06.409Z,2.60
2022-11-26T18:23:34.552Z,2.50
2022-11-26T18:26:03.063Z,2.50
2022-11-26T18:28:31.205Z,2.50
2022-11-26T18:31:00.449Z,2.60
2022-11-26T18:33:28.862Z,2.60
2022-11-26T18:35:57.816Z,2.70
2022-11-26T18:38:29.094Z,2.80
2022-11-26T18:41:03.596Z,2.80
2022-11-26T18:43:32.978Z,2.80
2022-11-26T18:46:05.457Z,2.80
2022-11-26T18:48:36.416Z,2.60
2022-11-26T18:51:05.200Z,2.70
2022-11-26T18:53:34.468Z,2.70
2022-11-26T18:56:07.351Z,2.70
2022-11-26T18:58:36.909Z,2.70
2022-11-26T19:01:13.653Z,2.60
2022-11-26T19:03:44.119Z,2.50
2022-11-26T19:06:15.214Z,2.50
2022-11-26T19:08:43.986Z,2.40
2022-11-26T19:11:14.615Z,2.40
2022-11-26T19:13:42.716Z,2.30
2022-11-26T19:16:16.827Z,2.30
2022-11-26T19:18:46.358Z,2.30
2022-11-26T19:21:24.336Z,2.20
2022-11-26T19:23:53.425Z,2.10
2022-11-26T19:26:22.178Z,2.20
2022-11-26T19:28:51.465Z,2.20
2022-11-26T19:31:23.228Z,2.20
2022-11-26T19:33:55.217Z,2.30
2022-11-26T19:36:23.467Z,2.30
2022-11-26T19:38:56.043Z,2.30
2022-11-26T19:41:26.061Z,2.20
2022-11-26T19:43:54.565Z,2.10
2022-11-26T19:46:25.732Z,2.10
2022-11-26T19:48:55.388Z,2.20
2022-11-26T19:51:26.212Z,2.20
2022-11-26T19:53:56.471Z,2.10
2022-11-26T19:56:26.578Z,2.10
2022-11-26T19:58:57.983Z,2.10
2022-11-26T20:01:30.373Z,2.10
2022-11-26T20:03:59.818Z,2.00
2022-11-26T20:06:29.204Z,1.90
2022-11-26T20:08:58.996Z,2.00
2022-11-26T20:11:27.570Z,1.80
2022-11-26T20:13:56.057Z,1.80
2022-11-26T20:16:25.937Z,1.80
2022-11-26T20:18:55.706Z,1.90
2022-11-26T20:21:26.493Z,1.90
2022-11-26T20:23:56.374Z,1.80
2022-11-26T20:26:26.269Z,1.70
2022-11-26T20:28:55.003Z,1.60
2022-11-26T20:31:24.702Z,1.70
2022-11-26T20:33:53.234Z,1.60
2022-11-26T20:36:23.420Z,1.60
2022-11-26T20:38:53.407Z,1.70
2022-11-26T20:41:21.349Z,1.70
2022-11-26T20:43:53.547Z,1.60
2022-11-26T20:46:26.117Z,1.70
2022-11-26T20:48:54.174Z,1.60
2022-11-26T20:51:23.977Z,1.60
2022-11-26T20:53:52.978Z,1.60
2022-11-26T20:56:22.711Z,1.70
2022-11-26T20:58:52.317Z,1.60
2022-11-26T21:01:22.697Z,1.60
2022-11-26T21:03:51.313Z,1.60
2022-11-26T21:06:27.591Z,1.50
2022-11-26T21:08:59.809Z,1.50
2022-11-26T21:11:28.196Z,1.60
2022-11-26T21:13:56.185Z,1.50
2022-11-26T21:16:24.047Z,1.70
2022-11-26T21:18:54.163Z,1.60
2022-11-26T21:21:22.463Z,1.50
2022-11-26T21:23:50.279Z,1.60
2022-11-26T21:26:21.353Z,1.70
2022-11-26T21:28:51.580Z,2.30
2022-11-26T21:31:20.274Z,1.60
2022-11-26T21:33:49.133Z,1.70
2022-11-26T21:36:17.932Z,1.70
2022-11-26T21:38:49.270Z,1.60
2022-11-26T21:41:20.056Z,1.70
2022-11-26T21:43:49.090Z,1.70
2022-11-26T21:46:19.054Z,1.60
2022-11-26T21:48:47.250Z,1.60
2022-11-26T21:51:16.959Z,1.60
2022-11-26T21:53:45.045Z,1.60
2022-11-26T21:56:15.110Z,1.60
2022-11-26T21:58:44.672Z,1.50
2022-11-26T22:01:13.802Z,1.40
2022-11-26T22:03:43.148Z,1.40
2022-11-26T22:06:12.041Z,1.40
2022-11-26T22:08:40.253Z,1.40
2022-11-26T22:11:10.239Z,1.40
2022-11-26T22:13:38.099Z,1.40
2022-11-26T22:16:08.379Z,1.50
2022-11-26T22:18:38.205Z,1.40
2022-11-26T22:21:07.798Z,1.40
2022-11-26T22:23:35.572Z,1.40
2022-11-26T22:26:03.368Z,1.50
2022-11-26T22:28:31.490Z,1.50
2022-11-26T22:30:59.300Z,1.60
2022-11-26T22:33:28.502Z,1.60
2022-11-26T22:35:56.249Z,1.50
2022-11-26T22:38:24.029Z,1.60
2022-11-26T22:40:51.845Z,1.50
2022-11-26T22:43:19.655Z,1.50
2022-11-26T22:45:47.454Z,1.40
2022-11-26T22:48:15.291Z,1.30
2022-11-26T22:50:51.207Z,1.30
2022-11-26T22:53:19.197Z,1.20
2022-11-26T22:55:51.614Z,1.20
2022-11-26T22:58:20.269Z,1.20
2022-11-26T23:00:50.743Z,1.20
2022-11-26T23:03:20.019Z,1.30
2022-11-26T23:05:49.351Z,1.10
2022-11-26T23:08:18.278Z,1.30
2022-11-26T23:10:48.286Z,1.30
2022-11-26T23:13:17.375Z,1.30
2022-11-26T23:15:46.777Z,1.30
2022-11-26T23:18:16.566Z,1.30
2022-11-26T23:20:44.827Z,1.30
2022-11-26T23:23:14.394Z,1.30
2022-11-26T23:25:42.485Z,1.30
2022-11-26T23:28:10.506Z,1.10
2022-11-26T23:30:38.293Z,1.10
2022-11-26T23:33:06.100Z,1.20
2022-11-26T23:35:34.591Z,1.20
2022-11-26T23:38:02.342Z,1.10
2022-11-26T23:40:31.498Z,1.00
2022-11-26T23:43:03.358Z,1.10
2022-11-26T23:45:33.746Z,1.10
2022-11-26T23:48:01.534Z,1.10
2022-11-26T23:50:30.014Z,1.00
2022-11-26T23:52:57.765Z,1.10
2022-11-26T23:55:25.554Z,1.10
2022-11-26T23:57:54.685Z,1.20
